createdAt,value
2023-02-26T00:01:29.771Z,0.68
2023-02-26T00:03:59.966Z,0.50
2023-02-26T00:06:28.826Z,0.47
2023-02-26T00:08:56.360Z,0.40
2023-02-26T00:11:23.559Z,0.40
2023-02-26T00:13:51.354Z,0.50
2023-02-26T00:16:29.410Z,0.50
2023-02-26T00:19:00.624Z,0.43
2023-02-26T00:23:55.799Z,0.47
2023-02-26T00:26:24.041Z,0.40
2023-02-26T00:28:51.375Z,0.50
2023-02-26T00:31:21.284Z,0.45
2023-02-26T00:33:48.498Z,0.50
2023-02-26T00:36:28.322Z,0.50
2023-02-26T00:39:07.207Z,0.40
2023-02-26T00:41:34.418Z,0.57
2023-02-26T00:44:01.649Z,0.50
2023-02-26T00:46:33.225Z,0.40
2023-02-26T00:49:23.366Z,0.38
2023-02-26T00:51:56.532Z,0.73
2023-02-26T00:54:26.638Z,0.50
2023-02-26T00:56:54.791Z,0.40
2023-02-26T00:59:22.342Z,0.40
2023-02-26T01:01:50.204Z,0.45
2023-02-26T01:04:19.652Z,0.50
2023-02-26T01:06:54.041Z,0.50
2023-02-26T01:09:30.115Z,0.60
2023-02-26T01:12:03.632Z,0.43
2023-02-26T01:14:32.652Z,0.50
2023-02-26T01:17:05.300Z,0.40
2023-02-26T01:20:05.688Z,0.40
2023-02-26T01:23:02.266Z,0.40
2023-02-26T01:25:51.558Z,0.60
2023-02-26T01:28:18.969Z,0.30
2023-02-26T01:30:46.395Z,0.47
2023-02-26T01:33:19.444Z,0.40
2023-02-26T01:35:54.098Z,0.50
2023-02-26T01:38:31.509Z,0.40
2023-02-26T01:41:16.508Z,0.50
2023-02-26T01:44:01.465Z,0.50
2023-02-26T01:46:49.969Z,0.52
2023-02-26T01:49:19.437Z,0.40
2023-02-26T01:51:56.489Z,0.50
2023-02-26T01:54:36.439Z,0.30
2023-02-26T01:57:09.629Z,0.30
2023-02-26T01:59:43.836Z,0.30
2023-02-26T02:02:13.567Z,0.40
2023-02-26T02:04:42.254Z,0.43
2023-02-26T02:07:10.040Z,0.38
2023-02-26T02:09:37.040Z,0.40
2023-02-26T02:12:15.852Z,0.50
2023-02-26T02:14:51.371Z,0.60
2023-02-26T02:17:42.519Z,0.40
2023-02-26T02:20:21.359Z,0.30
2023-02-26T02:23:12.394Z,0.40
2023-02-26T02:26:00.875Z,0.60
2023-02-26T02:28:42.761Z,0.50
2023-02-26T02:31:25.647Z,0.40
2023-02-26T02:34:21.595Z,0.50
2023-02-26T02:37:00.189Z,0.40
2023-02-26T02:39:32.188Z,0.40
2023-02-26T02:42:20.615Z,0.30
2023-02-26T02:44:53.825Z,0.30
2023-02-26T02:47:23.191Z,0.40
2023-02-26T02:50:27.127Z,0.65
2023-02-26T02:52:57.110Z,0.65
2023-02-26T02:55:33.238Z,0.55
2023-02-26T02:58:17.593Z,0.55
2023-02-26T03:00:55.170Z,0.60
2023-02-26T03:03:27.658Z,0.40
2023-02-26T03:05:54.714Z,0.40
2023-02-26T03:08:26.937Z,0.40
2023-02-26T03:10:53.862Z,0.40
2023-02-26T03:13:23.334Z,0.50
2023-02-26T03:15:53.098Z,0.40
2023-02-26T03:18:52.708Z,0.40
2023-02-26T03:21:38.323Z,0.50
2023-02-26T03:24:15.425Z,0.40
2023-02-26T03:26:48.530Z,0.40
2023-02-26T03:29:31.990Z,0.40
2023-02-26T03:32:05.380Z,0.47
2023-02-26T03:34:44.195Z,0.40
2023-02-26T03:37:41.816Z,0.30
2023-02-26T03:40:31.791Z,0.40
2023-02-26T03:43:19.177Z,0.80
2023-02-26T03:45:49.601Z,0.50
2023-02-26T03:48:21.868Z,0.55
2023-02-26T03:50:52.631Z,0.40
2023-02-26T03:53:24.708Z,0.40
2023-02-26T03:55:57.793Z,0.30
2023-02-26T03:58:24.948Z,0.40
2023-02-26T04:01:01.703Z,0.47
2023-02-26T04:03:42.500Z,0.40
2023-02-26T04:06:09.592Z,0.30
2023-02-26T04:08:36.981Z,0.47
2023-02-26T04:11:11.528Z,0.50
2023-02-26T04:13:38.788Z,0.40
2023-02-26T04:16:06.013Z,0.40
2023-02-26T04:18:32.856Z,0.40
2023-02-26T04:20:59.774Z,0.65
2023-02-26T04:23:26.712Z,0.30
2023-02-26T04:25:53.553Z,0.50
2023-02-26T04:28:20.342Z,0.40
2023-02-26T04:30:47.286Z,0.40
2023-02-26T04:33:15.995Z,0.50
2023-02-26T04:35:43.458Z,0.40
2023-02-26T04:38:10.270Z,0.50
2023-02-26T04:40:37.202Z,0.30
2023-02-26T04:43:05.126Z,0.45
2023-02-26T04:45:31.967Z,0.40
2023-02-26T04:47:58.855Z,0.50
2023-02-26T04:50:25.805Z,0.40
2023-02-26T04:52:53.016Z,0.30
2023-02-26T04:55:19.878Z,0.30
2023-02-26T04:57:47.110Z,0.50
2023-02-26T05:00:15.583Z,0.43
2023-02-26T05:02:42.517Z,0.40
2023-02-26T05:05:09.721Z,0.40
2023-02-26T05:07:36.715Z,0.40
2023-02-26T05:10:05.311Z,0.35
2023-02-26T05:12:32.137Z,0.20
2023-02-26T05:14:59.006Z,0.38
2023-02-26T05:17:25.801Z,0.40
2023-02-26T05:19:52.563Z,0.40
2023-02-26T05:22:19.368Z,0.40
2023-02-26T05:24:46.413Z,0.50
2023-02-26T05:27:13.541Z,0.30
2023-02-26T05:29:42.352Z,0.47
2023-02-26T05:32:09.270Z,0.40
2023-02-26T05:34:36.137Z,0.30
2023-02-26T05:37:03.750Z,0.30
2023-02-26T05:39:30.551Z,0.32
2023-02-26T05:41:57.424Z,0.40
2023-02-26T05:44:24.407Z,0.40
2023-02-26T05:46:51.311Z,0.47
2023-02-26T05:49:18.119Z,0.50
2023-02-26T05:51:44.975Z,0.40
2023-02-26T05:54:11.919Z,0.40
2023-02-26T05:56:38.778Z,0.40
2023-02-26T05:59:05.592Z,0.30
2023-02-26T06:01:32.519Z,0.40
2023-02-26T06:03:59.332Z,0.40
2023-02-26T06:06:27.419Z,0.50
2023-02-26T06:08:54.378Z,0.55
2023-02-26T06:11:21.284Z,0.28
2023-02-26T06:13:48.168Z,0.30
2023-02-26T06:16:15.085Z,0.70
2023-02-26T06:18:42.006Z,0.40
2023-02-26T06:21:09.681Z,0.30
2023-02-26T06:23:36.653Z,0.30
2023-02-26T06:26:03.684Z,0.40
2023-02-26T06:28:30.606Z,0.30
2023-02-26T06:30:57.715Z,0.30
2023-02-26T06:33:24.863Z,0.35
2023-02-26T06:35:51.727Z,0.30
2023-02-26T06:38:18.923Z,0.50
2023-02-26T06:40:48.008Z,0.40
2023-02-26T06:43:14.872Z,0.40
2023-02-26T06:45:41.770Z,0.30
2023-02-26T06:48:08.680Z,0.50
2023-02-26T06:50:35.562Z,0.40
2023-02-26T06:53:02.419Z,0.40
2023-02-26T06:55:29.289Z,0.30
2023-02-26T06:57:57.543Z,0.40
2023-02-26T07:00:26.013Z,0.32
2023-02-26T07:02:53.431Z,0.40
2023-02-26T07:05:20.364Z,0.30
2023-02-26T07:07:47.506Z,0.40
2023-02-26T07:10:14.481Z,0.35
2023-02-26T07:12:41.359Z,0.40
2023-02-26T07:15:09.013Z,0.50
2023-02-26T07:17:35.912Z,0.70
2023-02-26T07:20:06.848Z,0.50
2023-02-26T07:22:34.235Z,0.60
2023-02-26T07:25:01.072Z,0.50
2023-02-26T07:27:28.227Z,0.40
2023-02-26T07:29:55.074Z,0.80
2023-02-26T07:32:22.782Z,0.50
2023-02-26T07:34:49.775Z,0.50
2023-02-26T07:37:16.683Z,0.90
2023-02-26T07:39:43.635Z,0.50
2023-02-26T07:42:10.818Z,1.45
2023-02-26T07:44:37.744Z,1.10
2023-02-26T07:47:04.863Z,1.60
2023-02-26T07:49:32.841Z,0.80
2023-02-26T07:52:00.125Z,1.77
2023-02-26T07:54:28.196Z,1.27
2023-02-26T07:56:55.445Z,2.08
2023-02-26T07:59:22.415Z,2.60
2023-02-26T08:01:49.338Z,1.30
2023-02-26T08:04:16.661Z,2.05
2023-02-26T08:06:43.874Z,1.77
2023-02-26T08:09:10.831Z,1.65
2023-02-26T08:11:40.723Z,0.98
2023-02-26T08:14:08.306Z,1.17
2023-02-26T08:16:35.274Z,1.52
2023-02-26T08:19:02.930Z,1.30
2023-02-26T08:21:29.835Z,1.00
2023-02-26T08:23:56.873Z,1.00
2023-02-26T08:26:24.276Z,0.68
2023-02-26T08:28:51.482Z,0.70
2023-02-26T08:31:18.619Z,0.80
2023-02-26T08:33:46.013Z,1.10
2023-02-26T08:36:13.119Z,0.70
2023-02-26T08:38:40.173Z,0.90
2023-02-26T08:41:07.004Z,0.85
2023-02-26T08:43:34.087Z,0.77
2023-02-26T08:46:01.041Z,0.73
2023-02-26T08:48:28.131Z,0.80
2023-02-26T08:50:55.026Z,0.60
2023-02-26T08:53:22.143Z,0.80
2023-02-26T08:55:50.803Z,0.90
2023-02-26T08:58:18.282Z,0.80
2023-02-26T09:00:45.801Z,0.65
2023-02-26T09:03:13.214Z,0.70
2023-02-26T09:05:41.193Z,1.25
2023-02-26T09:08:08.990Z,1.35
2023-02-26T09:10:35.998Z,9.85
2023-02-26T09:13:02.975Z,8.50
2023-02-26T09:15:29.874Z,9.90
2023-02-26T09:17:56.971Z,12.00
2023-02-26T09:20:23.868Z,17.10
2023-02-26T09:22:50.727Z,17.48
2023-02-26T09:25:18.152Z,21.08
2023-02-26T09:27:45.167Z,30.17
2023-02-26T09:30:12.954Z,28.35
2023-02-26T09:32:40.009Z,26.10
2023-02-26T09:35:07.331Z,24.60
2023-02-26T09:37:34.408Z,24.05
2023-02-26T09:40:01.533Z,23.75
2023-02-26T09:42:31.573Z,22.15
2023-02-26T09:45:00.385Z,20.10
2023-02-26T09:47:42.148Z,18.73
2023-02-26T09:50:21.028Z,17.90
2023-02-26T09:52:50.803Z,17.00
2023-02-26T09:55:35.757Z,16.25
2023-02-26T09:58:05.452Z,11.32
2023-02-26T10:00:51.081Z,11.48
2023-02-26T10:03:33.137Z,11.82
2023-02-26T10:06:15.360Z,11.45
2023-02-26T10:08:51.284Z,11.23
2023-02-26T10:11:28.710Z,10.38
2023-02-26T10:14:05.215Z,10.18
2023-02-26T10:16:38.600Z,9.27
2023-02-26T10:19:11.483Z,9.35
2023-02-26T10:21:49.584Z,7.60
2023-02-26T10:24:23.454Z,7.72
2023-02-26T10:27:07.137Z,6.45
2023-02-26T10:29:41.125Z,5.53
2023-02-26T10:32:31.270Z,5.60
2023-02-26T10:35:10.110Z,5.97
2023-02-26T10:37:44.712Z,6.55
2023-02-26T10:40:19.174Z,5.32
2023-02-26T10:43:06.499Z,4.82
2023-02-26T10:45:39.890Z,5.47
2023-02-26T10:48:34.560Z,4.60
2023-02-26T10:51:12.656Z,3.42
2023-02-26T10:53:42.406Z,3.65
2023-02-26T10:56:18.262Z,3.35
2023-02-26T10:58:46.392Z,3.75
2023-02-26T11:01:22.250Z,3.60
2023-02-26T11:03:55.200Z,3.97
2023-02-26T11:06:34.341Z,3.35
2023-02-26T11:09:03.358Z,4.15
2023-02-26T11:11:41.732Z,5.38
2023-02-26T11:14:10.050Z,3.03
2023-02-26T11:16:43.933Z,2.85
2023-02-26T11:19:14.897Z,3.35
2023-02-26T11:21:45.505Z,2.22
2023-02-26T11:24:20.112Z,2.60
2023-02-26T11:26:49.212Z,2.33
2023-02-26T11:29:21.323Z,2.03
2023-02-26T11:31:51.326Z,2.28
2023-02-26T11:34:23.798Z,2.63
2023-02-26T11:36:53.432Z,1.77
2023-02-26T11:39:27.201Z,2.15
2023-02-26T11:41:58.672Z,2.05
2023-02-26T11:44:45.934Z,2.08
2023-02-26T11:47:13.092Z,2.00
2023-02-26T11:49:46.535Z,2.20
2023-02-26T11:52:34.259Z,1.42
2023-02-26T11:55:04.206Z,1.60
2023-02-26T11:57:33.094Z,1.90
2023-02-26T12:00:04.077Z,2.95
2023-02-26T12:02:38.351Z,1.83
2023-02-26T12:05:07.392Z,1.77
2023-02-26T12:07:34.931Z,1.90
2023-02-26T12:10:02.097Z,9.13
2023-02-26T12:12:41.908Z,19.52
2023-02-26T12:15:29.022Z,9.30
2023-02-26T12:18:15.793Z,12.07
2023-02-26T12:21:05.660Z,9.60
2023-02-26T12:23:50.659Z,8.43
2023-02-26T12:26:51.160Z,8.00
2023-02-26T12:29:44.361Z,7.60
2023-02-26T12:32:37.001Z,8.02
2023-02-26T12:35:19.017Z,7.10
2023-02-26T12:37:57.952Z,7.47
2023-02-26T12:40:43.296Z,7.60
2023-02-26T12:43:45.771Z,6.90
2023-02-26T12:46:26.062Z,6.65
2023-02-26T12:49:18.051Z,5.40
2023-02-26T12:51:47.440Z,6.57
2023-02-26T12:54:35.378Z,5.28
2023-02-26T12:57:28.117Z,5.65
2023-02-26T13:00:16.430Z,5.68
2023-02-26T13:03:05.564Z,5.95
2023-02-26T13:05:42.186Z,7.68
2023-02-26T13:08:36.315Z,5.93
2023-02-26T13:11:12.108Z,4.85
2023-02-26T13:13:53.816Z,5.10
2023-02-26T13:16:37.401Z,11.88
2023-02-26T13:19:43.515Z,11.57
2023-02-26T13:22:19.438Z,6.22
2023-02-26T13:24:49.305Z,28.00
2023-02-26T13:27:17.705Z,12.98
2023-02-26T13:29:45.720Z,7.32
2023-02-26T13:32:18.517Z,8.88
2023-02-26T13:35:42.366Z,8.82
2023-02-26T13:38:50.309Z,5.47
2023-02-26T13:41:29.053Z,6.15
2023-02-26T13:44:15.751Z,2.75
2023-02-26T13:47:20.212Z,2.72
2023-02-26T13:50:16.531Z,1.92
2023-02-26T13:52:56.709Z,1.50
2023-02-26T13:55:37.414Z,1.10
2023-02-26T13:58:41.167Z,1.27
2023-02-26T14:01:26.958Z,1.25
2023-02-26T14:04:22.615Z,1.25
2023-02-26T14:06:52.196Z,1.95
2023-02-26T14:09:22.020Z,1.25
2023-02-26T14:12:13.455Z,1.10
2023-02-26T14:15:00.295Z,1.20
2023-02-26T14:17:51.736Z,1.00
2023-02-26T14:20:23.560Z,1.85
2023-02-26T14:23:13.002Z,1.63
2023-02-26T14:25:52.474Z,1.40
2023-02-26T14:28:21.396Z,1.02
2023-02-26T14:30:52.479Z,0.95
2023-02-26T14:35:51.990Z,0.90
2023-02-26T14:38:24.031Z,1.27
2023-02-26T14:41:33.044Z,1.02
2023-02-26T14:44:17.707Z,0.90
2023-02-26T14:46:46.709Z,1.35
2023-02-26T14:49:26.294Z,2.00
2023-02-26T14:52:12.042Z,1.40
2023-02-26T14:55:15.867Z,1.40
2023-02-26T14:57:45.812Z,2.08
2023-02-26T15:00:19.327Z,2.00
2023-02-26T15:03:12.413Z,1.88
2023-02-26T15:06:17.113Z,1.95
2023-02-26T15:08:49.616Z,0.85
2023-02-26T15:11:42.549Z,1.10
2023-02-26T15:14:50.002Z,1.08
2023-02-26T15:17:26.310Z,1.23
2023-02-26T15:20:12.186Z,1.85
2023-02-26T15:22:54.909Z,1.52
2023-02-26T15:25:28.086Z,1.15
2023-02-26T15:27:55.534Z,1.30
2023-02-26T15:30:24.723Z,1.38
2023-02-26T15:32:58.347Z,1.45
2023-02-26T15:35:29.484Z,1.30
2023-02-26T15:40:29.462Z,1.50
2023-02-26T15:45:36.662Z,1.23
2023-02-26T15:48:11.001Z,1.40
2023-02-26T15:50:44.277Z,1.17
2023-02-26T15:53:38.648Z,0.98
2023-02-26T15:56:13.190Z,0.90
2023-02-26T15:58:46.802Z,0.90
2023-02-26T16:01:18.976Z,2.05
2023-02-26T16:03:46.801Z,1.20
2023-02-26T16:06:21.405Z,1.48
2023-02-26T16:08:48.396Z,1.48
2023-02-26T16:11:16.787Z,1.88
2023-02-26T16:13:44.805Z,1.63
2023-02-26T16:16:52.171Z,1.20
2023-02-26T16:19:24.033Z,1.73
2023-02-26T16:21:56.565Z,1.10
2023-02-26T16:24:23.874Z,1.38
2023-02-26T16:26:57.148Z,1.63
2023-02-26T16:29:30.188Z,1.20
2023-02-26T16:32:01.988Z,1.20
2023-02-26T16:34:37.880Z,0.82
2023-02-26T16:37:24.878Z,1.23
2023-02-26T16:39:56.681Z,1.50
2023-02-26T16:42:38.789Z,0.95
2023-02-26T16:45:40.933Z,1.40
2023-02-26T16:48:15.988Z,1.50
2023-02-26T16:50:43.349Z,1.70
2023-02-26T16:53:18.231Z,1.30
2023-02-26T16:55:55.236Z,1.42
2023-02-26T16:58:23.982Z,4.50
2023-02-26T17:01:00.348Z,1.90
2023-02-26T17:03:30.170Z,2.72
2023-02-26T17:06:01.398Z,2.00
2023-02-26T17:08:42.861Z,2.30
2023-02-26T17:11:20.683Z,1.60
2023-02-26T17:14:02.993Z,2.17
2023-02-26T17:16:30.223Z,2.13
2023-02-26T17:18:57.348Z,2.50
2023-02-26T17:21:24.798Z,1.83
2023-02-26T17:23:52.021Z,1.92
2023-02-26T17:26:19.277Z,2.03
2023-02-26T17:28:46.204Z,1.63
2023-02-26T17:31:13.840Z,2.20
2023-02-26T17:33:45.296Z,1.98
2023-02-26T17:36:16.849Z,1.80
2023-02-26T17:38:47.338Z,1.88
2023-02-26T17:41:18.830Z,2.65
2023-02-26T17:43:45.939Z,2.33
2023-02-26T17:46:13.261Z,1.75
2023-02-26T17:48:40.513Z,1.58
2023-02-26T17:51:09.775Z,1.52
2023-02-26T17:53:41.192Z,2.38
2023-02-26T17:56:38.002Z,1.75
2023-02-26T17:59:07.434Z,1.67
2023-02-26T18:01:34.586Z,2.85
2023-02-26T18:04:04.052Z,2.03
2023-02-26T18:06:35.089Z,1.35
2023-02-26T18:09:05.267Z,1.52
2023-02-26T18:11:33.657Z,6.53
2023-02-26T18:14:01.782Z,6.03
2023-02-26T18:16:33.709Z,7.00
2023-02-26T18:19:02.469Z,7.03
2023-02-26T18:21:29.853Z,6.18
2023-02-26T18:23:58.022Z,4.45
2023-02-26T18:26:28.018Z,5.10
2023-02-26T18:28:56.162Z,4.20
2023-02-26T18:31:25.237Z,4.00
2023-02-26T18:33:52.723Z,3.78
2023-02-26T18:36:36.015Z,3.67
2023-02-26T18:39:06.143Z,2.90
2023-02-26T18:41:33.504Z,3.53
2023-02-26T18:44:00.965Z,3.13
2023-02-26T18:46:28.707Z,4.43
2023-02-26T18:48:56.586Z,4.63
2023-02-26T18:51:23.653Z,3.42
2023-02-26T18:53:50.718Z,3.72
2023-02-26T18:56:18.405Z,4.18
2023-02-26T18:58:45.647Z,4.03
2023-02-26T19:01:13.040Z,4.53
2023-02-26T19:03:40.339Z,3.90
2023-02-26T19:06:11.939Z,5.15
2023-02-26T19:08:39.198Z,4.85
2023-02-26T19:11:07.244Z,3.53
2023-02-26T19:13:34.614Z,3.53
2023-02-26T19:16:02.085Z,3.13
2023-02-26T19:18:29.907Z,3.03
2023-02-26T19:20:57.100Z,2.17
2023-02-26T19:23:24.829Z,2.88
2023-02-26T19:25:53.124Z,2.20
2023-02-26T19:28:21.968Z,3.10
2023-02-26T19:30:49.108Z,2.50
2023-02-26T19:33:20.775Z,2.72
2023-02-26T19:35:51.296Z,2.85
2023-02-26T19:38:24.665Z,2.00
2023-02-26T19:40:52.307Z,2.40
2023-02-26T19:43:19.514Z,2.40
2023-02-26T19:45:47.398Z,2.40
2023-02-26T19:48:15.225Z,2.58
2023-02-26T19:50:43.141Z,2.95
2023-02-26T19:53:10.392Z,2.63
2023-02-26T19:55:37.846Z,2.80
2023-02-26T19:58:06.490Z,2.78
2023-02-26T20:00:34.302Z,2.65
2023-02-26T20:03:01.471Z,2.92
2023-02-26T20:05:28.771Z,2.42
2023-02-26T20:07:56.814Z,2.30
2023-02-26T20:10:29.725Z,2.20
2023-02-26T20:13:01.814Z,2.03
2023-02-26T20:15:29.462Z,2.50
2023-02-26T20:17:58.666Z,2.45
2023-02-26T20:20:27.239Z,2.67
2023-02-26T20:22:54.781Z,2.50
2023-02-26T20:25:24.948Z,2.25
2023-02-26T20:27:53.030Z,2.30
2023-02-26T20:30:21.330Z,2.90
2023-02-26T20:32:49.196Z,2.92
2023-02-26T20:35:16.701Z,2.17
2023-02-26T20:37:45.058Z,1.88
2023-02-26T20:40:14.370Z,1.80
2023-02-26T20:42:41.609Z,1.70
2023-02-26T20:45:09.152Z,2.22
2023-02-26T20:47:36.888Z,1.80
2023-02-26T20:50:06.097Z,2.40
2023-02-26T20:52:34.775Z,1.65
2023-02-26T20:55:02.611Z,2.13
2023-02-26T20:57:32.971Z,2.05
2023-02-26T21:00:00.725Z,2.70
2023-02-26T21:02:28.239Z,1.75
2023-02-26T21:04:58.524Z,1.90
2023-02-26T21:07:26.145Z,1.83
2023-02-26T21:09:55.802Z,1.85
2023-02-26T21:12:23.522Z,1.73
2023-02-26T21:14:57.099Z,1.60
2023-02-26T21:17:25.878Z,1.60
2023-02-26T21:19:54.723Z,2.00
2023-02-26T21:22:23.683Z,1.83
2023-02-26T21:24:53.437Z,1.80
2023-02-26T21:27:20.725Z,1.85
2023-02-26T21:29:48.013Z,1.63
2023-02-26T21:32:16.268Z,1.95
2023-02-26T21:34:43.320Z,1.98
2023-02-26T21:37:12.473Z,1.98
2023-02-26T21:39:40.336Z,1.90
2023-02-26T21:42:11.971Z,1.75
2023-02-26T21:44:40.992Z,1.83
2023-02-26T21:47:10.664Z,1.48
2023-02-26T21:49:38.258Z,1.63
2023-02-26T21:52:07.732Z,1.90
2023-02-26T21:54:35.085Z,2.05
2023-02-26T21:57:02.199Z,1.77
2023-02-26T21:59:29.323Z,1.50
2023-02-26T22:01:56.881Z,1.90
2023-02-26T22:04:24.050Z,1.40
2023-02-26T22:06:51.224Z,3.40
2023-02-26T22:09:21.779Z,1.90
2023-02-26T22:11:48.872Z,3.58
2023-02-26T22:14:15.959Z,2.78
2023-02-26T22:16:43.030Z,2.15
2023-02-26T22:19:10.589Z,1.90
2023-02-26T22:21:37.704Z,2.28
2023-02-26T22:24:05.913Z,1.85
2023-02-26T22:26:33.339Z,1.70
2023-02-26T22:29:01.120Z,2.10
2023-02-26T22:31:29.720Z,1.90
2023-02-26T22:33:58.578Z,1.80
2023-02-26T22:36:26.205Z,1.67
2023-02-26T22:38:53.444Z,2.05
2023-02-26T22:41:20.323Z,1.75
2023-02-26T22:43:47.391Z,1.52
2023-02-26T22:46:14.290Z,1.52
2023-02-26T22:48:43.754Z,2.30
2023-02-26T22:51:10.931Z,1.40
2023-02-26T22:53:38.037Z,1.60
2023-02-26T22:56:05.235Z,1.40
2023-02-26T22:58:32.260Z,1.30
2023-02-26T23:01:07.162Z,1.58
2023-02-26T23:03:34.486Z,1.40
2023-02-26T23:06:01.457Z,1.45
2023-02-26T23:08:28.579Z,1.67
2023-02-26T23:10:57.920Z,1.65
2023-02-26T23:13:25.898Z,1.50
2023-02-26T23:15:53.409Z,1.40
2023-02-26T23:18:20.374Z,1.38
2023-02-26T23:20:49.230Z,1.52
2023-02-26T23:23:17.166Z,1.30
2023-02-26T23:25:44.897Z,1.50
2023-02-26T23:28:12.177Z,1.30
2023-02-26T23:30:39.592Z,1.20
2023-02-26T23:33:07.560Z,1.40
2023-02-26T23:35:35.628Z,1.80
2023-02-26T23:38:02.816Z,1.30
2023-02-26T23:40:30.199Z,1.50
2023-02-26T23:42:57.092Z,1.30
2023-02-26T23:45:24.430Z,1.35
2023-02-26T23:47:51.678Z,1.40
2023-02-26T23:50:18.717Z,1.75
2023-02-26T23:52:45.730Z,1.38
2023-02-26T23:55:12.969Z,1.42
2023-02-26T23:57:40.202Z,1.50
